Time;durP1;ratioP1;P1;durP2;ratioP2;P2;SDS_P1;SDS_P2;PMS_P1;PMS_P2;Temp;Humidity;BMP_temperature;BMP_pressure;BME280_temperature;BME280_humidity;BME280_pressure;Samples;Min_cycle;Max_cycle;Signal;HPM_P1;HPM_P2
2023/07/11 00:00:06;;;;;;;7.15;2.10;;;;;;;-146.27;70.75;81271.47;5065463;28;20028;-75
2023/07/11 00:02:32;;;;;;;4.75;1.52;;;;;;;-146.27;71.32;81271.47;5064493;28;20047;-75
2023/07/11 00:05:01;;;;;;;7.00;1.75;;;;;;;-146.27;71.42;81285.53;5072463;28;20020;-75
2023/07/11 00:07:27;;;;;;;7.57;2.40;;;;;;;-146.27;71.34;81287.53;5101936;28;20460;-75
2023/07/11 00:09:53;;;;;;;5.80;1.70;;;;;;;-146.27;72.05;81319.66;5064624;28;20023;-75
2023/07/11 00:12:19;;;;;;;4.55;1.67;;;;;;;-146.27;72.29;81271.47;5054229;28;20154;-75
2023/07/11 00:14:45;;;;;;;6.88;1.95;;;;;;;-146.27;72.43;81265.44;5059075;28;20071;-75
2023/07/11 00:17:12;;;;;;;5.93;1.88;;;;;;;-146.27;71.86;81269.47;5052602;28;20040;-74
2023/07/11 00:19:56;;;;;;;2.92;1.30;;;;;;;-146.27;72.58;81323.69;5052424;28;20029;-75
2023/07/11 00:22:23;;;;;;;8.43;2.35;;;;;;;-146.27;72.80;81307.63;5068238;28;20101;-76
2023/07/11 00:24:50;;;;;;;8.68;1.48;;;;;;;-146.27;73.08;81303.59;5064781;28;20029;-75
2023/07/11 00:27:17;;;;;;;4.40;1.52;;;;;;;-146.27;72.86;81311.63;5071741;28;20028;-75
2023/07/11 00:29:43;;;;;;;4.38;1.60;;;;;;;-146.27;74.29;81315.66;5086108;28;20111;-74
2023/07/11 00:32:09;;;;;;;5.68;1.65;;;;;;;-146.27;73.27;81335.72;5067150;28;20485;-75
2023/07/11 00:34:35;;;;;;;4.03;1.58;;;;;;;-146.27;73.67;81335.72;5062394;28;20024;-75
2023/07/11 00:37:00;;;;;;;6.32;1.77;;;;;;;-146.27;74.27;81323.69;5069400;28;20023;-75
2023/07/11 00:39:28;;;;;;;8.80;1.70;;;;;;;-146.27;74.34;81351.78;5071480;28;20037;-75
2023/07/11 00:41:53;;;;;;;6.50;2.00;;;;;;;-146.27;73.91;81311.63;5082940;28;20046;-76
2023/07/11 00:44:18;;;;;;;7.70;2.20;;;;;;;-146.27;73.70;81420.06;5077803;28;20066;-76
2023/07/11 00:46:44;;;;;;;6.78;1.70;;;;;;;-146.27;74.30;81291.53;5052342;28;20029;-75
2023/07/11 00:49:13;;;;;;;3.25;1.80;;;;;;;-146.27;74.89;81285.53;5064580;28;20474;-76
2023/07/11 00:51:45;;;;;;;5.05;2.10;;;;;;;-146.27;74.81;81293.56;5067250;28;20021;-76
2023/07/11 00:54:14;;;;;;;4.70;1.70;;;;;;;-146.27;75.54;81303.59;5089257;28;20507;-76
2023/07/11 00:56:43;;;;;;;3.00;1.52;;;;;;;-146.27;76.38;81309.63;5071060;28;20111;-76
2023/07/11 00:59:09;;;;;;;5.88;1.83;;;;;;;-146.27;75.58;81303.59;5081020;28;20039;-75
2023/07/11 01:01:35;;;;;;;8.95;1.95;;;;;;;-146.27;76.36;81323.69;5079523;28;20101;-76
2023/07/11 01:04:03;;;;;;;4.93;1.67;;;;;;;-146.27;75.46;81297.56;5068702;28;20323;-75
2023/07/11 01:06:30;;;;;;;5.20;1.67;;;;;;;-146.27;75.67;81289.53;5055139;28;20260;-76
2023/07/11 01:08:57;;;;;;;8.57;1.92;;;;;;;-146.27;74.46;81311.63;5078031;28;20518;-76
2023/07/11 01:11:26;;;;;;;3.13;1.73;;;;;;;-146.27;74.16;81283.50;5054097;28;20051;-76
2023/07/11 01:13:52;;;;;;;5.57;1.55;;;;;;;-146.27;73.75;81285.53;5061245;28;20457;-76
2023/07/11 01:16:19;;;;;;;7.00;1.65;;;;;;;-146.27;74.01;81309.63;5070987;28;20115;-76
2023/07/11 01:18:45;;;;;;;6.88;1.67;;;;;;;-146.27;75.28;81319.66;5074070;28;20036;-76
2023/07/11 01:21:21;;;;;;;6.97;1.60;;;;;;;-146.27;74.50;81275.47;5077707;28;20039;-75
2023/07/11 01:23:47;;;;;;;4.35;1.50;;;;;;;-146.27;74.12;81335.72;5079897;28;20027;-76
2023/07/11 01:26:12;;;;;;;11.35;1.90;;;;;;;-146.27;74.30;81345.78;5078135;28;20685;-76
2023/07/11 01:28:41;;;;;;;5.40;1.50;;;;;;;-146.27;75.21;81335.72;5090696;28;20054;-76
2023/07/11 01:31:07;;;;;;;8.45;1.40;;;;;;;-146.27;75.07;81337.75;5071095;28;20369;-75
2023/07/11 01:33:34;;;;;;;7.35;1.58;;;;;;;-146.27;74.39;81339.75;5075343;28;20025;-75
2023/07/11 01:36:00;;;;;;;3.90;1.45;;;;;;;-146.27;73.78;81331.72;5062982;28;20040;-76
2023/07/11 01:38:26;;;;;;;9.10;1.63;;;;;;;-146.27;73.64;81329.72;5068919;28;20486;-76
2023/07/11 01:40:51;;;;;;;5.85;1.38;;;;;;;-146.27;74.30;81339.75;5079176;28;20020;-75
2023/07/11 01:43:18;;;;;;;6.20;1.50;;;;;;;-146.27;74.47;81333.72;5079311;28;20033;-76
2023/07/11 01:45:44;;;;;;;5.28;1.88;;;;;;;-146.27;74.67;81301.59;5068190;28;20051;-76
2023/07/11 01:48:09;;;;;;;7.28;1.80;;;;;;;-146.27;73.70;81367.88;5076537;28;20036;-75
2023/07/11 01:50:35;;;;;;;6.63;1.85;;;;;;;-146.27;74.23;81347.78;5072335;28;20024;-75
2023/07/11 01:53:01;;;;;;;5.80;1.63;;;;;;;-146.27;74.03;81373.88;5071015;28;20036;-75
2023/07/11 01:55:26;;;;;;;6.43;1.75;;;;;;;-146.27;73.70;81343.75;5076043;28;20016;-75
2023/07/11 01:57:52;;;;;;;5.28;1.63;;;;;;;-146.27;72.83;81361.84;5069592;28;20025;-75
2023/07/11 02:00:18;;;;;;;3.50;1.55;;;;;;;-146.27;73.23;81323.69;5064657;28;20032;-75
2023/07/11 02:02:43;;;;;;;9.68;1.70;;;;;;;-146.27;72.81;81311.63;5072503;28;20496;-75
2023/07/11 02:05:09;;;;;;;5.95;1.50;;;;;;;-146.27;72.71;81331.72;5059291;28;20393;-75
2023/07/11 02:07:34;;;;;;;7.45;1.67;;;;;;;-146.27;71.61;81303.59;5088923;28;20020;-75
2023/07/11 02:09:59;;;;;;;5.82;1.92;;;;;;;-146.27;70.23;81293.56;5069207;28;20024;-75
2023/07/11 02:13:18;;;;;;;4.30;1.63;;;;;;;-146.27;68.44;81263.44;5058493;28;20032;-75
2023/07/11 02:15:43;;;;;;;11.43;1.52;;;;;;;-146.27;70.74;81291.53;5081365;28;20083;-74
2023/07/11 02:18:10;;;;;;;5.22;1.70;;;;;;;-146.27;68.91;81295.56;5066615;28;20033;-74
2023/07/11 02:20:44;;;;;;;4.22;1.73;;;;;;;-146.27;70.13;81271.47;5059319;28;20032;-75
2023/07/11 02:23:15;;;;;;;4.05;1.60;;;;;;;-146.27;69.68;81283.50;5067233;28;20055;-75
2023/07/11 02:25:40;;;;;;;4.05;1.45;;;;;;;-146.27;70.67;81287.53;5065713;28;20141;-75
2023/07/11 02:28:06;;;;;;;4.00;1.55;;;;;;;-146.27;70.63;81267.44;5072409;28;20099;-75
2023/07/11 02:30:33;;;;;;;9.20;1.90;;;;;;;-146.27;70.29;81249.38;5064575;28;20487;-76
2023/07/11 02:32:58;;;;;;;4.43;1.58;;;;;;;-146.27;70.65;81285.53;5082525;28;20429;-75
2023/07/11 02:35:24;;;;;;;4.70;1.58;;;;;;;-146.27;70.46;81255.41;5063107;28;20035;-75
2023/07/11 02:37:50;;;;;;;5.55;1.42;;;;;;;-146.27;71.37;81335.72;5071687;28;20043;-75
2023/07/11 02:40:15;;;;;;;4.45;1.65;;;;;;;-146.27;71.24;81281.50;5050035;28;20115;-75
2023/07/11 02:42:41;;;;;;;10.02;1.48;;;;;;;-146.27;71.79;81297.56;5050428;28;20098;-75
2023/07/11 02:45:06;;;;;;;7.20;1.88;;;;;;;-146.27;71.33;81305.59;5068716;28;20027;-75
2023/07/11 02:47:32;;;;;;;3.45;1.55;;;;;;;-146.27;71.42;81293.56;5083202;28;20084;-75
2023/07/11 02:49:57;;;;;;;5.93;1.83;;;;;;;-146.27;71.39;81289.53;5052273;28;20024;-74
2023/07/11 02:52:23;;;;;;;7.93;2.00;;;;;;;-146.27;70.87;81287.53;5069500;28;20025;-75
2023/07/11 02:54:48;;;;;;;5.93;1.85;;;;;;;-146.27;70.41;81315.66;5068201;28;20074;-75
2023/07/11 02:57:14;;;;;;;4.80;1.52;;;;;;;-146.27;71.78;81279.50;5079665;28;20024;-75
2023/07/11 02:59:39;;;;;;;3.83;1.73;;;;;;;-146.27;71.23;81285.53;5069982;28;20067;-75
2023/07/11 03:02:04;;;;;;;4.32;1.60;;;;;;;-146.27;72.08;81281.50;5074323;28;20024;-75
2023/07/11 03:04:31;;;;;;;5.03;1.42;;;;;;;-146.27;72.91;81281.50;5073009;28;20024;-75
2023/07/11 03:06:56;;;;;;;5.40;1.40;;;;;;;-146.27;72.63;81335.72;5087952;28;20020;-75
2023/07/11 03:09:24;;;;;;;4.80;1.85;;;;;;;-146.27;73.34;81400.00;5077787;28;20361;-75
2023/07/11 03:11:50;;;;;;;6.53;1.90;;;;;;;-146.27;72.72;81367.88;5073807;28;20056;-74
2023/07/11 03:14:15;;;;;;;6.07;1.95;;;;;;;-146.27;72.95;81345.78;5073603;28;20032;-74
2023/07/11 03:16:42;;;;;;;6.20;2.20;;;;;;;-146.27;72.54;81325.69;5074448;28;20095;-75
2023/07/11 03:19:08;;;;;;;5.57;2.00;;;;;;;-146.27;72.53;81353.81;5074162;28;20020;-74
2023/07/11 03:21:34;;;;;;;6.90;2.60;;;;;;;-146.27;72.46;81339.75;5074348;28;20535;-75
2023/07/11 03:23:59;;;;;;;6.15;2.30;;;;;;;-146.27;72.41;81329.72;5070532;28;20027;-75
2023/07/11 03:26:25;;;;;;;7.00;2.85;;;;;;;-146.27;71.75;81418.06;5072852;28;20032;-75
2023/07/11 03:28:50;;;;;;;5.05;2.40;;;;;;;-146.27;71.69;81313.63;5054011;28;20031;-75
2023/07/11 03:31:16;;;;;;;7.05;2.17;;;;;;;-146.27;71.54;81381.91;5057823;28;20024;-74
2023/07/11 03:33:42;;;;;;;6.57;2.72;;;;;;;-146.27;70.85;81355.81;5061899;28;20028;-75
2023/07/11 03:36:08;;;;;;;7.55;2.40;;;;;;;-146.27;70.76;81355.81;5073135;28;20059;-75
2023/07/11 03:38:33;;;;;;;6.03;2.42;;;;;;;-146.27;70.78;81395.97;5070187;28;20053;-75
2023/07/11 03:40:58;;;;;;;6.07;2.38;;;;;;;-146.27;71.54;81371.88;5053595;28;20032;-76
2023/07/11 03:43:24;;;;;;;4.95;2.40;;;;;;;-146.27;70.29;81371.88;5073782;28;20116;-75
2023/07/11 03:45:49;;;;;;;7.10;2.70;;;;;;;-146.27;69.10;81361.84;5072860;28;20020;-75
2023/07/11 03:48:15;;;;;;;6.50;1.98;;;;;;;-146.27;69.68;81337.75;5072941;28;20029;-75
2023/07/11 03:50:41;;;;;;;4.80;2.20;;;;;;;-146.27;69.51;81355.81;5069911;28;20476;-75
2023/07/11 03:53:07;;;;;;;7.40;2.53;;;;;;;-146.27;69.51;81408.03;5093417;28;20016;-75
2023/07/11 03:55:32;;;;;;;6.28;2.88;;;;;;;-146.27;69.27;81369.88;5081583;28;20029;-75
2023/07/11 03:57:58;;;;;;;4.50;2.47;;;;;;;-146.27;68.84;81391.97;5073364;28;20021;-75
2023/07/11 04:00:24;;;;;;;6.72;2.28;;;;;;;-146.27;69.19;81359.81;5071343;28;20036;-76
2023/07/11 04:02:49;;;;;;;5.25;2.30;;;;;;;-146.27;69.13;81381.91;5067764;28;20028;-76
2023/07/11 04:05:15;;;;;;;6.93;2.00;;;;;;;-146.27;68.95;81383.94;5057904;28;20037;-76
2023/07/11 04:07:41;;;;;;;6.65;2.13;;;;;;;-146.27;68.99;81375.91;5069376;28;20039;-76
2023/07/11 04:10:07;;;;;;;6.07;2.40;;;;;;;-146.27;69.82;81400.00;5080765;28;20080;-76
2023/07/11 04:12:33;;;;;;;3.00;2.00;;;;;;;-146.27;69.57;81444.19;5073653;28;20109;-76
2023/07/11 04:14:59;;;;;;;8.57;2.47;;;;;;;-146.27;70.20;81395.97;5068729;28;20029;-76
2023/07/11 04:17:25;;;;;;;5.65;2.08;;;;;;;-146.27;69.15;81379.91;5059307;28;20032;-76
2023/07/11 04:19:51;;;;;;;5.05;2.55;;;;;;;-146.27;69.54;81393.97;5070681;28;20027;-76
2023/07/11 04:22:16;;;;;;;4.47;2.03;;;;;;;-146.27;69.46;81404.00;5060107;28;20028;-76
2023/07/11 04:24:42;;;;;;;5.22;2.42;;;;;;;-146.27;69.71;81391.97;5058714;28;20024;-76
2023/07/11 04:27:09;;;;;;;7.95;2.38;;;;;;;-146.27;69.45;81395.97;5080407;28;20067;-76
2023/07/11 04:29:36;;;;;;;6.85;2.80;;;;;;;-146.27;69.52;81466.28;5080874;28;20184;-76
2023/07/11 04:32:02;;;;;;;3.75;2.67;;;;;;;-146.27;69.27;81402.00;5087551;28;20034;-75
2023/07/11 04:34:27;;;;;;;8.68;2.03;;;;;;;-146.27;69.18;81395.97;5070397;28;20016;-76
2023/07/11 04:36:53;;;;;;;10.93;2.35;;;;;;;-146.27;70.39;81402.00;5083840;28;20027;-76
2023/07/11 04:39:18;;;;;;;7.88;2.30;;;;;;;-146.27;69.05;81387.94;5089257;28;20086;-75
2023/07/11 04:41:43;;;;;;;5.53;3.10;;;;;;;-146.27;70.12;81438.16;5062855;28;20036;-76
2023/07/11 04:44:09;;;;;;;10.15;2.97;;;;;;;-146.27;69.88;81418.06;5068372;28;20099;-76
2023/07/11 04:46:34;;;;;;;6.93;2.45;;;;;;;-146.27;69.85;81389.94;5070699;28;20109;-76
2023/07/11 04:48:59;;;;;;;6.88;3.20;;;;;;;-146.27;70.81;81395.97;5058323;28;20055;-76
2023/07/11 04:51:25;;;;;;;6.68;2.60;;;;;;;-146.27;69.86;81359.81;5062769;28;20445;-76
2023/07/11 04:53:51;;;;;;;5.35;2.75;;;;;;;-146.27;70.45;81408.03;5077364;28;20028;-75
2023/07/11 04:56:16;;;;;;;5.18;2.53;;;;;;;-146.27;70.08;81371.88;5062937;28;20028;-76
2023/07/11 04:58:41;;;;;;;8.45;3.60;;;;;;;-146.27;70.63;81375.91;5077471;28;20027;-76
2023/07/11 05:01:15;;;;;;;5.05;2.92;;;;;;;-146.27;71.22;81339.75;5080886;28;20024;-76
2023/07/11 05:03:40;;;;;;;6.18;2.95;;;;;;;-146.27;70.92;81402.00;5070840;28;20392;-76
2023/07/11 05:06:08;;;;;;;10.45;3.50;;;;;;;-146.27;70.51;81357.81;5068186;28;20025;-76
2023/07/11 05:08:33;;;;;;;8.77;2.70;;;;;;;-146.27;70.49;81361.84;5071755;28;20036;-76
2023/07/11 05:11:01;;;;;;;4.38;2.53;;;;;;;-146.27;70.75;81361.84;5071474;28;20412;-76
2023/07/11 05:13:26;;;;;;;6.82;3.28;;;;;;;-146.27;71.45;81400.00;5051874;28;20115;-75
2023/07/11 05:16:07;;;;;;;7.75;3.20;;;;;;;-146.27;71.04;81383.94;5075029;28;20535;-76
2023/07/11 05:18:34;;;;;;;7.05;2.75;;;;;;;-146.27;71.81;81367.88;5056485;28;20032;-76
2023/07/11 05:21:00;;;;;;;7.88;2.95;;;;;;;-146.27;71.94;81393.97;5065718;28;20075;-76
2023/07/11 05:23:28;;;;;;;8.10;3.30;;;;;;;-146.27;71.96;81339.75;5063061;28;20032;-76
2023/07/11 05:25:57;;;;;;;8.43;3.97;;;;;;;-146.27;72.50;81343.75;5072215;28;20060;-76
2023/07/11 05:28:25;;;;;;;8.65;3.47;;;;;;;-146.27;72.61;81359.81;5051943;28;20033;-75
2023/07/11 05:30:51;;;;;;;6.88;3.20;;;;;;;-146.27;73.16;81371.88;5057354;28;20012;-75
2023/07/11 05:33:16;;;;;;;6.18;3.97;;;;;;;-146.27;73.11;81343.75;5062324;28;20488;-76
2023/07/11 05:35:56;;;;;;;6.80;3.30;;;;;;;-146.27;73.00;81319.66;5071250;28;20139;-76
2023/07/11 05:38:22;;;;;;;8.15;3.63;;;;;;;-146.27;73.64;81319.66;5056124;28;20118;-70
2023/07/11 05:40:47;;;;;;;8.15;3.38;;;;;;;-146.27;74.03;81299.59;5059191;28;20039;-69
2023/07/11 05:43:12;;;;;;;9.63;3.63;;;;;;;-146.27;74.59;81271.47;5064440;28;20531;-77
2023/07/11 05:45:38;;;;;;;11.82;3.80;;;;;;;-146.27;74.18;81281.50;5068467;28;20381;-77
2023/07/11 05:48:03;;;;;;;13.23;3.80;;;;;;;-146.27;74.15;81249.38;5069657;28;20028;-77
2023/07/11 05:50:29;;;;;;;9.93;3.70;;;;;;;-146.27;73.59;81203.19;5082241;28;20561;-77
2023/07/11 05:52:54;;;;;;;7.28;3.63;;;;;;;-146.27;73.73;81215.22;5060034;28;20353;-76
2023/07/11 05:55:20;;;;;;;9.93;3.45;;;;;;;-146.27;73.96;81211.22;5071290;28;20028;-77
2023/07/11 05:57:45;;;;;;;8.88;3.05;;;;;;;-146.27;73.74;81179.09;5070646;28;20098;-77
2023/07/11 06:00:11;;;;;;;11.10;4.10;;;;;;;-146.27;73.87;81152.97;5069294;28;20116;-77
2023/07/11 06:02:36;;;;;;;8.40;3.17;;;;;;;-146.27;74.32;81167.03;5068382;28;20551;-76
2023/07/11 06:05:02;;;;;;;10.20;3.50;;;;;;;-146.27;74.08;81106.78;5067902;28;20024;-77
2023/07/11 06:07:28;;;;;;;12.50;3.20;;;;;;;-146.27;73.32;81070.66;5070293;28;20054;-77
2023/07/11 06:09:55;;;;;;;8.82;3.42;;;;;;;-146.27;72.89;81040.53;5066314;28;20095;-76
2023/07/11 06:12:22;;;;;;;6.15;2.42;;;;;;;-146.27;72.16;80980.28;5068924;28;20039;-74
2023/07/11 06:14:49;;;;;;;5.43;2.65;;;;;;;-146.27;71.68;80986.31;5069663;28;20028;-76
2023/07/11 06:17:16;;;;;;;4.18;1.67;;;;;;;-146.27;71.41;80926.06;5072290;28;20063;-79
2023/07/11 06:19:41;;;;;;;8.05;2.80;;;;;;;-146.27;69.35;80905.97;5071356;28;20024;-77
2023/07/11 06:22:07;;;;;;;12.45;2.50;;;;;;;-146.27;68.37;80883.88;5072729;28;20080;-77
2023/07/11 06:24:32;;;;;;;7.75;1.98;;;;;;;-146.27;68.18;80833.69;5064310;28;20406;-77
2023/07/11 06:26:59;;;;;;;9.73;2.15;;;;;;;-146.27;67.92;80787.50;5084832;28;20031;-76
2023/07/11 06:29:25;;;;;;;7.40;2.35;;;;;;;-146.27;66.99;80785.50;5068100;28;20396;-76
2023/07/11 06:31:50;;;;;;;6.00;1.95;;;;;;;-146.27;65.98;80729.28;5067587;28;20028;-75
2023/07/11 06:34:16;;;;;;;14.80;2.72;;;;;;;-146.27;64.72;80683.09;5065451;28;20035;-75
2023/07/11 06:36:41;;;;;;;8.18;1.83;;;;;;;-146.27;63.48;80661.00;5065556;28;20488;-75
2023/07/11 06:39:06;;;;;;;5.32;1.88;;;;;;;-146.27;63.15;80624.88;5062262;28;20068;-76
2023/07/11 06:41:32;;;;;;;8.32;3.00;;;;;;;-146.27;61.82;80620.84;5061474;28;20119;-75
2023/07/11 06:43:57;;;;;;;3.67;1.77;;;;;;;-146.27;61.92;80540.53;5059646;28;20024;-76
2023/07/11 06:46:24;;;;;;;6.45;2.20;;;;;;;-146.27;62.01;80510.41;5050695;28;20025;-76
2023/07/11 06:48:50;;;;;;;6.85;1.95;;;;;;;-146.27;60.42;80510.41;5062764;28;20029;-76
2023/07/11 06:51:15;;;;;;;8.43;1.85;;;;;;;-146.27;59.36;80456.19;5067987;28;20067;-76
2023/07/11 06:53:40;;;;;;;12.90;2.22;;;;;;;-146.27;58.54;80410.03;5073396;28;20025;-76
2023/07/11 06:56:06;;;;;;;12.48;2.17;;;;;;;-146.27;59.00;80339.75;5070322;28;20095;-76
2023/07/11 06:58:32;;;;;;;6.95;2.50;;;;;;;-146.27;58.05;80335.72;5065361;28;20021;-75
2023/07/11 07:01:03;;;;;;;7.53;1.98;;;;;;;-146.27;56.87;80339.75;5057522;28;20029;-76
2023/07/11 07:03:29;;;;;;;5.65;1.92;;;;;;;-146.27;56.01;80335.72;5065011;28;20032;-75
2023/07/11 07:05:58;;;;;;;11.48;1.80;;;;;;;-146.27;56.51;80255.41;5070662;28;20029;-75
2023/07/11 07:08:24;;;;;;;6.53;1.92;;;;;;;-146.27;55.28;80219.28;5064313;28;20043;-75
2023/07/11 07:10:50;;;;;;;8.45;2.05;;;;;;;-146.27;55.65;80159.06;5067340;28;20045;-75
2023/07/11 07:13:18;;;;;;;3.42;1.48;;;;;;;-146.27;54.83;80145.00;5084453;28;20056;-77
2023/07/11 07:15:54;;;;;;;8.18;1.98;;;;;;;-146.27;55.61;80128.94;5065360;28;20032;-78
2023/07/11 07:18:21;;;;;;;5.75;1.92;;;;;;;-146.27;55.41;80102.84;5062581;28;20043;-76
2023/07/11 07:20:48;;;;;;;5.72;2.17;;;;;;;-146.27;54.55;80100.81;5050078;28;20029;-77
2023/07/11 07:23:14;;;;;;;4.85;1.75;;;;;;;-146.27;55.03;79996.44;5057774;28;20032;-76
2023/07/11 07:25:39;;;;;;;8.15;2.10;;;;;;;-146.27;55.21;80062.69;5052993;28;20372;-75
2023/07/11 07:28:05;;;;;;;8.10;2.05;;;;;;;-146.27;54.26;80060.69;5064193;28;20234;-75
2023/07/11 07:30:31;;;;;;;5.97;2.13;;;;;;;-146.27;54.58;80030.56;5072423;28;20024;-77
2023/07/11 07:32:57;;;;;;;9.00;1.95;;;;;;;-146.27;54.12;79952.25;5067856;28;20119;-74
2023/07/11 07:35:23;;;;;;;7.50;1.92;;;;;;;-146.27;54.10;79910.09;5065808;28;20020;-78
2023/07/11 07:37:48;;;;;;;11.68;1.80;;;;;;;-146.27;53.57;79954.28;5059496;28;20035;-78
2023/07/11 07:40:15;;;;;;;7.65;2.05;;;;;;;-146.27;54.02;79950.25;5059312;28;20691;-78
2023/07/11 07:42:41;;;;;;;7.88;1.75;;;;;;;-146.27;54.90;79980.38;5055208;28;20024;-79
2023/07/11 07:45:06;;;;;;;9.77;2.13;;;;;;;-146.27;54.30;79940.22;5064145;28;20031;-77
2023/07/11 07:47:35;;;;;;;7.28;2.58;;;;;;;-146.27;54.01;79918.13;5061054;28;20064;-77
2023/07/11 07:50:00;;;;;;;3.97;1.50;;;;;;;-146.27;54.44;79857.91;5064829;28;20386;-77
2023/07/11 07:52:26;;;;;;;6.20;1.85;;;;;;;-146.27;54.01;79857.91;5073848;28;20107;-78
2023/07/11 07:54:51;;;;;;;4.85;1.85;;;;;;;-146.27;53.37;79795.69;5068950;28;20032;-78
2023/07/11 07:57:16;;;;;;;5.55;2.20;;;;;;;-146.27;53.09;79727.41;5069421;28;20532;-79
2023/07/11 07:59:43;;;;;;;8.90;2.15;;;;;;;-146.27;52.40;79809.72;5053495;28;20493;-77
2023/07/11 08:02:09;;;;;;;14.27;2.30;;;;;;;-146.27;52.98;79761.53;5060797;28;20059;-77
2023/07/11 08:04:35;;;;;;;6.10;2.08;;;;;;;-146.27;50.65;79857.91;5072137;28;20021;-79
2023/07/11 08:07:00;;;;;;;3.58;1.67;;;;;;;-146.27;50.20;79813.75;5074139;28;20085;-77
2023/07/11 08:09:26;;;;;;;8.05;1.95;;;;;;;-146.27;50.90;79867.94;5071724;28;20047;-77
2023/07/11 08:11:52;;;;;;;6.45;1.55;;;;;;;-146.27;50.37;79823.78;5069631;28;20054;-77
2023/07/11 08:14:17;;;;;;;5.32;2.15;;;;;;;-146.27;51.39;79821.78;5072071;28;20115;-78
2023/07/11 08:16:43;;;;;;;4.70;1.85;;;;;;;-146.27;50.47;79869.94;5072388;28;20037;-78
2023/07/11 08:19:08;;;;;;;3.72;1.75;;;;;;;-146.27;51.29;79781.63;5067860;28;20029;-77
2023/07/11 08:21:37;;;;;;;8.27;1.95;;;;;;;-146.27;50.61;79765.56;5072784;28;20035;-77
2023/07/11 08:24:06;;;;;;;6.00;1.98;;;;;;;-146.27;50.82;79821.78;5072621;28;20028;-79
2023/07/11 08:26:32;;;;;;;3.55;1.95;;;;;;;-146.27;51.20;79775.59;5071681;28;20520;-79
2023/07/11 08:28:59;;;;;;;6.13;2.00;;;;;;;-146.27;51.32;79753.53;5068938;28;20040;-76
2023/07/11 08:31:25;;;;;;;6.05;1.65;;;;;;;-146.27;51.12;79729.44;5058291;28;20403;-79
2023/07/11 08:33:50;;;;;;;4.50;1.90;;;;;;;-146.27;50.97;79689.28;5069699;28;20424;-70
2023/07/11 08:36:16;;;;;;;8.02;2.40;;;;;;;-146.27;50.90;79673.22;5071451;28;20021;-71
2023/07/11 08:38:44;;;;;;;9.13;1.95;;;;;;;-146.27;51.00;79665.19;5056911;28;20566;-71
2023/07/11 08:41:15;;;;;;;6.75;1.70;;;;;;;-146.27;49.78;79673.22;5069524;28;20479;-70
2023/07/11 08:43:42;;;;;;;4.65;2.13;;;;;;;-146.27;49.29;79747.50;5075455;28;20063;-72
2023/07/11 08:46:10;;;;;;;6.53;1.75;;;;;;;-146.27;48.74;79649.13;5052186;28;20029;-71
2023/07/11 08:48:42;;;;;;;4.85;1.80;;;;;;;-146.27;48.64;79701.31;5051728;28;20040;-71
2023/07/11 08:51:23;;;;;;;6.20;1.88;;;;;;;-146.27;49.16;79613.00;5051727;28;20025;-72
2023/07/11 08:53:56;;;;;;;5.45;2.03;;;;;;;-146.27;48.67;79621.03;5056948;28;20436;-69
2023/07/11 08:56:36;;;;;;;;;;;;;;;-146.27;48.90;79681.25;5054223;28;20061;-69
2023/07/11 08:59:07;;;;;;;5.95;2.25;;;;;;;-146.27;48.15;79701.31;5050470;28;19916;-70
2023/07/11 09:01:35;;;;;;;6.95;2.47;;;;;;;-146.27;49.34;79693.28;5057714;28;20400;-70
2023/07/11 09:04:01;;;;;;;2.72;1.33;;;;;;;-146.27;48.98;79709.34;5051889;28;20064;-72
2023/07/11 09:06:37;;;;;;;3.83;1.45;;;;;;;-146.27;50.15;79621.03;5061784;28;20041;-71
2023/07/11 09:09:04;;;;;;;9.30;2.55;;;;;;;-146.27;50.70;79552.78;5074563;28;20048;-71
2023/07/11 09:11:52;;;;;;;7.57;2.10;;;;;;;-146.27;50.45;79512.63;5066012;28;20048;-70
2023/07/11 09:14:52;;;;;;;4.50;1.70;;;;;;;-146.27;50.45;79500.59;5065484;28;20033;-71
2023/07/11 09:17:47;;;;;;;8.65;2.08;;;;;;;-146.27;50.39;79524.66;5056292;28;20056;-70
2023/07/11 09:20:31;;;;;;;9.15;1.73;;;;;;;-146.27;52.26;79554.78;5057706;28;20127;-71
2023/07/11 09:23:24;;;;;;;8.32;2.03;;;;;;;-146.27;54.53;79594.94;5060173;28;20078;-71
2023/07/11 09:25:49;;;;;;;6.03;1.90;;;;;;;-146.27;54.78;79641.09;5067898;28;20041;-76
2023/07/11 09:28:22;;;;;;;6.25;1.80;;;;;;;-146.27;54.92;79560.81;5068097;28;20043;-76
2023/07/11 09:30:50;;;;;;;5.32;1.83;;;;;;;-146.27;55.62;79548.75;5072108;28;20044;-76
2023/07/11 09:33:28;;;;;;;8.60;1.67;;;;;;;-146.27;54.92;79568.84;5071123;28;20411;-75
2023/07/11 09:35:55;;;;;;;14.68;1.90;;;;;;;-146.27;54.77;79544.75;5063103;28;20028;-74
2023/07/11 09:38:37;;;;;;;5.53;1.55;;;;;;;-146.27;54.30;79594.94;5055944;28;20033;-75
2023/07/11 09:41:08;;;;;;;5.13;1.75;;;;;;;-146.27;54.72;79663.19;5061501;28;20030;-75
2023/07/11 09:43:34;;;;;;;6.53;1.90;;;;;;;-146.27;56.78;79641.09;5065657;28;20029;-76
2023/07/11 09:45:59;;;;;;;6.30;1.60;;;;;;;-146.27;55.99;79468.47;5067493;28;20033;-75
2023/07/11 09:48:36;;;;;;;9.20;2.40;;;;;;;-146.27;54.75;79486.53;5057121;28;20020;-75
2023/07/11 09:51:19;;;;;;;6.75;1.63;;;;;;;-146.27;53.97;79418.28;5055917;28;20028;-75
2023/07/11 09:53:45;;;;;;;7.13;2.15;;;;;;;-146.27;53.73;79360.06;5069139;28;20091;-74
2023/07/11 09:56:22;;;;;;;6.90;1.85;;;;;;;-146.27;53.49;79287.81;5065278;28;20052;-74
2023/07/11 09:58:58;;;;;;;7.07;2.08;;;;;;;-146.27;54.74;79291.81;5075795;28;20480;-75
2023/07/11 10:01:37;;;;;;;7.50;2.10;;;;;;;-146.27;51.88;79293.84;5077551;28;20036;-75
2023/07/11 10:04:17;;;;;;;10.77;2.45;;;;;;;-146.27;51.38;79279.78;5085118;28;20020;-75
2023/07/11 10:06:53;;;;;;;5.40;2.20;;;;;;;-146.27;50.95;79368.09;5072257;28;20036;-75
2023/07/11 10:09:22;;;;;;;6.10;2.13;;;;;;;-146.27;49.83;79340.00;5069271;28;20424;-76
2023/07/11 10:12:12;;;;;;;8.43;2.15;;;;;;;-146.27;50.76;79293.84;5066028;28;20075;-77
2023/07/11 10:14:42;;;;;;;7.80;1.98;;;;;;;-146.27;50.94;79352.03;5063272;28;20076;-76
2023/07/11 10:17:21;;;;;;;6.53;2.13;;;;;;;-146.27;51.71;79327.94;5070143;28;20032;-75
2023/07/11 10:19:51;;;;;;;5.85;2.15;;;;;;;-146.27;51.16;79253.69;5068982;28;20119;-75
2023/07/11 10:22:19;;;;;;;6.93;2.33;;;;;;;-146.27;51.98;79177.41;5063267;28;20447;-75
2023/07/11 10:25:01;;;;;;;8.55;2.40;;;;;;;-146.27;50.73;79141.28;5063801;28;20449;-75
2023/07/11 10:27:37;;;;;;;4.70;1.67;;;;;;;-146.27;51.10;79127.22;5059612;28;20024;-75
2023/07/11 10:30:05;;;;;;;8.25;1.80;;;;;;;-146.27;50.95;79131.25;5085552;28;20559;-75
2023/07/11 10:32:48;;;;;;;3.83;1.50;;;;;;;-146.27;50.09;79069.03;5065652;28;20032;-75
2023/07/11 10:35:24;;;;;;;7.57;1.77;;;;;;;-146.27;51.94;78966.66;5070401;28;20045;-75
2023/07/11 10:38:21;;;;;;;6.10;1.95;;;;;;;-146.27;50.10;78966.66;5067011;28;20381;-74
2023/07/11 10:40:51;;;;;;;6.05;2.00;;;;;;;-146.27;49.71;78960.63;5068738;28;20400;-74
2023/07/11 10:43:29;;;;;;;8.00;2.17;;;;;;;-146.27;50.24;79018.84;5066058;28;20122;-72
2023/07/11 10:46:04;;;;;;;8.23;2.55;;;;;;;-146.27;50.61;78930.53;5073105;28;20479;-73
2023/07/11 10:48:33;;;;;;;7.43;2.05;;;;;;;-146.27;50.03;79099.13;5071575;28;20384;-74
2023/07/11 10:51:12;;;;;;;6.10;2.20;;;;;;;-146.27;50.76;79127.22;5073572;28;20020;-75
2023/07/11 10:54:03;;;;;;;4.18;1.80;;;;;;;-146.27;50.62;78922.50;5069097;28;20082;-74
2023/07/11 10:56:37;;;;;;;6.07;1.80;;;;;;;-146.27;49.81;78725.81;5060749;28;20093;-74
2023/07/11 10:59:22;;;;;;;4.40;1.67;;;;;;;-146.27;47.97;78858.28;5068487;28;20029;-75
2023/07/11 11:02:01;;;;;;;6.75;1.73;;;;;;;-146.27;49.26;78834.19;5078648;28;20020;-75
2023/07/11 11:04:36;;;;;;;4.47;1.40;;;;;;;-146.27;48.45;78733.84;5055353;28;20043;-74
2023/07/11 11:07:04;;;;;;;4.10;1.85;;;;;;;-146.27;48.13;78852.25;5054692;28;20112;-75
2023/07/11 11:09:42;;;;;;;7.93;2.10;;;;;;;-146.27;50.05;78691.69;5060929;28;20468;-75
2023/07/11 11:12:58;;;;;;;6.05;1.88;;;;;;;-146.27;47.24;78832.19;5052953;28;20430;-74
2023/07/11 11:15:47;;;;;;;8.13;1.73;;;;;;;-146.27;50.11;78806.09;5065965;28;20488;-74
2023/07/11 11:18:23;;;;;;;5.93;2.00;;;;;;;-146.27;47.31;78826.16;5067694;28;20028;-74
2023/07/11 11:20:57;;;;;;;5.38;1.70;;;;;;;-146.27;48.03;78830.19;5067540;28;20025;-75
2023/07/11 11:23:47;;;;;;;9.70;2.25;;;;;;;-146.27;47.73;78659.59;5067235;28;20476;-74